Sylvania, GA

1:52 AM EDT on July 28, 2014 (GMT -0400)
Statesboro-Bulloch County (KTBR) Elev 187 ft | 32.48 °N, 81.74 °W | Change Station
Active Advisory: Heat Advisory Active Notice: Record Report

Current weather conditions updated 17 minutes ago

Clear
Clear
82 °F
Feels Like 87 °F
N
4
Wind Variable Wind from WSW

Today is forecast to be nearly the same temperature as yesterday. Afternoon showers and thunderstorms.

Today
High -- | Low -- °F
--% Chance of Precip.
Yesterday
High -- | Low -- °F
Precip. -- in
6:37 AM 8:28 PM
New Moon, 2% visible
Pressure 29.92 in
Visibility 10.0 miles
Clouds Clear
Heat Index 87 °F
Dew Point 73 °F
Humidity 74%
Rainfall 0.00 in
Snow Depth Not available.
UV 0 out of 12
Pollen 5.70 out of 12
Air Quality Not available.
Flu Activity Not available.
METAR KTBR 280535Z AUTO 24003KT 10SM CLR 28/23 A2992 RMK AO2 T02770228

More Conditions Fewer Conditions

Pressure 29.92 in
Visibility 10.0 miles
Clouds Clear
Heat Index 87 °F
Dew Point 73 °F
Humidity 74%
Rainfall 0.00 in
Snow Depth Not available.
UV 0 out of 12
Pollen 5.70 out of 12
Air Quality Not available.
Flu Activity Not available.
METAR KTBR 280535Z AUTO 24003KT 10SM CLR 28/23 A2992 RMK AO2 T02770228

More Conditions Fewer Conditions

10-Day Weather Forecast

Almanac

Astronomy

Jul. 28, 2014 Rise Set
Actual Time 6:37 AM EDT 8:28 PM EDT
Civil Twilight 6:10 AM EDT 8:55 PM EDT
Nautical Twilight 5:37 AM EDT 9:28 PM EDT
Astronomical Twilight 5:02 AM EDT 10:02 PM EDT
Moon 8:09 AM EDT 9:18 PM EDT
Length of Visible Light 14h 44m
Length of Day
13h 50m
Tomorrow will be 1m 24s shorter.
New Moon, 2% of the Moon is Illuminated
Today
New Moon
Aug 3
First Quarter
Aug 10
Full
Aug 17
Last Quarter
Aug 25
New

Today's Extremes

State Highs State Lows

Community

WunderPhotos

Upload Photos

1,738,299 photos uploaded!

Nearby

Snow Depth

Station Depth Elevation
No new snow has been reported.

Earthquake Activity

City Distance Mag. Time & Date
No recent earthquake activity has been reported nearby.
Minimum magnitude displayed is 2.5.

Coastal Water Temperatures

Place Temperature
No Stations Reporting

Nearby Weather Stations

There are no personal weather stations in this area.